Time;durP1;ratioP1;P1;durP2;ratioP2;P2;SDS_P1;SDS_P2;PMS_P1;PMS_P2;Temp;Humidity;BMP_temperature;BMP_pressure;BME280_temperature;BME280_humidity;BME280_pressure;Samples;Min_cycle;Max_cycle;Signal;HPM_P1;HPM_P2
2024/03/16 00:00:13;;;;;;;23.50;9.85;;;;;;;4.44;58.85;100480.56;4781920;29;20066;-78
2024/03/16 00:02:40;;;;;;;18.25;9.95;;;;;;;4.48;58.80;100478.94;4754801;29;20138;-78
2024/03/16 00:05:06;;;;;;;19.55;9.65;;;;;;;4.41;59.04;100459.88;4795179;29;20043;-79
2024/03/16 00:07:33;;;;;;;18.38;10.43;;;;;;;4.57;58.52;100491.19;4801312;29;20078;-78
2024/03/16 00:09:59;;;;;;;20.08;9.43;;;;;;;4.41;58.27;100466.72;4785826;29;20096;-79
2024/03/16 00:12:25;;;;;;;17.45;10.05;;;;;;;4.06;58.72;100411.69;4798049;29;20046;-76
2024/03/16 00:14:51;;;;;;;20.73;9.32;;;;;;;4.46;58.51;100488.31;4795547;29;20039;-77
2024/03/16 00:17:17;;;;;;;16.95;9.68;;;;;;;3.91;58.92;100390.69;4790214;29;21098;-78
2024/03/16 00:19:47;;;;;;;20.45;10.32;;;;;;;4.03;59.19;100418.47;4805042;29;20088;-78
2024/03/16 00:22:15;;;;;;;16.80;9.63;;;;;;;4.09;59.40;100425.50;4799276;29;20467;-77
2024/03/16 00:24:41;;;;;;;22.95;9.93;;;;;;;4.03;58.70;100415.91;4799629;29;20459;-77
2024/03/16 00:27:07;;;;;;;20.65;10.18;;;;;;;4.16;59.05;100427.41;4802303;29;20097;-77
2024/03/16 00:29:33;;;;;;;20.85;10.75;;;;;;;4.20;59.20;100443.00;4795328;29;20195;-76
2024/03/16 00:32:01;;;;;;;18.98;10.35;;;;;;;4.22;58.67;100433.59;4794629;29;20145;-76
2024/03/16 00:34:27;;;;;;;19.55;10.50;;;;;;;4.34;58.59;100453.69;4796550;29;20047;-76
2024/03/16 00:36:53;;;;;;;17.50;9.50;;;;;;;4.20;58.07;100430.09;4782883;29;20039;-76
2024/03/16 00:39:23;;;;;;;21.08;10.05;;;;;;;4.21;58.70;100437.00;4815162;29;20103;-75
2024/03/16 00:41:50;;;;;;;17.40;9.65;;;;;;;4.48;58.85;100486.66;4788173;29;20046;-76
2024/03/16 00:44:18;;;;;;;16.55;9.68;;;;;;;4.38;58.71;100472.66;4784302;29;20103;-79
2024/03/16 00:46:45;;;;;;;19.15;10.05;;;;;;;4.26;58.95;100452.59;4787075;29;20061;-78
2024/03/16 00:49:11;;;;;;;17.98;8.88;;;;;;;4.02;59.28;100424.47;4795477;29;20058;-76
2024/03/16 00:51:37;;;;;;;18.65;10.55;;;;;;;4.03;58.94;100405.59;4789448;29;20047;-78
2024/03/16 00:54:03;;;;;;;16.95;9.57;;;;;;;4.49;58.83;100489.31;4801396;29;20053;-78
2024/03/16 00:56:29;;;;;;;20.52;10.43;;;;;;;3.96;58.57;100389.13;4775361;29;20038;-80
2024/03/16 00:58:55;;;;;;;15.65;9.35;;;;;;;3.92;58.74;100372.69;4773963;29;20054;-79
2024/03/16 01:01:21;;;;;;;20.35;10.50;;;;;;;4.33;58.12;100449.34;4787249;29;20059;-77
2024/03/16 01:03:48;;;;;;;20.35;9.50;;;;;;;4.13;59.07;100417.03;4791197;29;20053;-77
2024/03/16 01:06:14;;;;;;;18.05;10.07;;;;;;;4.49;58.83;100470.38;4802497;29;20529;-78
2024/03/16 01:08:40;;;;;;;17.52;9.35;;;;;;;4.43;58.72;100463.34;4801658;29;20050;-80
2024/03/16 01:11:06;;;;;;;16.45;9.20;;;;;;;4.07;59.14;100394.56;4786080;29;20051;-80
2024/03/16 01:13:32;;;;;;;17.25;9.43;;;;;;;4.12;58.29;100413.56;4816273;29;20055;-78
2024/03/16 01:15:58;;;;;;;19.30;9.85;;;;;;;4.01;58.91;100413.25;4802248;29;20043;-78
2024/03/16 01:18:24;;;;;;;22.73;9.05;;;;;;;4.33;58.56;100467.38;4814482;29;20054;-78
2024/03/16 01:20:50;;;;;;;16.75;9.10;;;;;;;4.33;59.10;100467.38;4803174;29;20039;-79
2024/03/16 01:23:17;;;;;;;19.75;9.35;;;;;;;4.36;58.91;100474.31;4800761;29;20061;-81
2024/03/16 01:25:43;;;;;;;18.90;9.43;;;;;;;4.17;58.17;100449.78;4798693;29;20051;-75
2024/03/16 01:28:09;;;;;;;18.20;9.60;;;;;;;3.87;58.49;100406.88;4813504;29;20051;-75
2024/03/16 01:30:36;;;;;;;21.05;9.45;;;;;;;3.90;59.14;100410.38;4799781;29;20046;-76
2024/03/16 01:33:02;;;;;;;16.17;8.75;;;;;;;4.30;59.04;100474.19;4786603;29;20414;-75
2024/03/16 01:35:28;;;;;;;16.65;9.18;;;;;;;4.06;58.82;100439.16;4786884;29;20502;-75
2024/03/16 01:37:54;;;;;;;17.42;9.40;;;;;;;4.21;59.07;100461.88;4802289;29;20038;-75
2024/03/16 01:40:24;;;;;;;20.33;8.70;;;;;;;3.89;58.85;100413.78;4784768;29;20138;-75
2024/03/16 01:42:52;;;;;;;16.73;9.40;;;;;;;4.31;59.30;100473.31;4800502;29;20070;-77
2024/03/16 01:45:19;;;;;;;16.33;9.48;;;;;;;3.87;58.38;100397.44;4797428;29;20149;-76
2024/03/16 01:47:49;;;;;;;22.55;9.52;;;;;;;4.20;59.27;100450.72;4797435;29;20039;-75
2024/03/16 01:50:19;;;;;;;20.50;9.40;;;;;;;4.00;58.79;100413.25;4801666;29;20053;-77
2024/03/16 01:52:46;;;;;;;18.25;9.40;;;;;;;3.92;58.56;100402.72;4783633;29;20110;-76
2024/03/16 01:55:15;;;;;;;15.77;8.80;;;;;;;4.21;58.68;100455.03;4798961;29;20092;-75
2024/03/16 01:57:41;;;;;;;17.90;9.15;;;;;;;4.41;58.80;100480.47;4789009;29;20050;-77
2024/03/16 02:00:11;;;;;;;25.45;9.32;;;;;;;4.48;58.82;100484.09;4798516;29;20518;-76
2024/03/16 02:02:41;;;;;;;24.20;9.35;;;;;;;3.89;58.61;100372.59;4785719;29;20188;-76
2024/03/16 02:05:08;;;;;;;20.25;9.40;;;;;;;4.52;58.91;100483.34;4801335;29;20054;-75
2024/03/16 02:07:39;;;;;;;16.98;8.93;;;;;;;4.36;58.46;100452.00;4770579;29;20069;-75
2024/03/16 02:10:08;;;;;;;18.13;9.23;;;;;;;4.26;58.57;100441.41;4801937;29;20054;-76
2024/03/16 02:12:34;;;;;;;20.65;9.30;;;;;;;4.30;58.82;100445.84;4767892;29;20039;-76
2024/03/16 02:15:02;;;;;;;18.45;9.40;;;;;;;4.04;58.64;100400.47;4780604;29;20042;-74
2024/03/16 02:17:48;;;;;;;13.93;8.73;;;;;;;4.17;58.75;100430.03;4787806;29;20035;-76
2024/03/16 02:20:15;;;;;;;17.90;9.32;;;;;;;4.48;58.31;100469.50;4802432;29;20427;-77
2024/03/16 02:22:42;;;;;;;22.10;9.50;;;;;;;4.47;58.59;100474.59;4798086;29;20047;-75
2024/03/16 02:25:11;;;;;;;17.58;9.15;;;;;;;4.15;58.69;100423.94;4783323;29;20046;-76
2024/03/16 02:27:37;;;;;;;19.40;8.90;;;;;;;4.06;58.37;100398.81;4781299;29;20051;-73
2024/03/16 02:30:10;;;;;;;19.90;10.18;;;;;;;4.43;58.84;100454.72;4798614;29;20053;-75
2024/03/16 02:32:38;;;;;;;20.15;9.68;;;;;;;4.35;58.50;100444.22;4797853;29;20058;-74
2024/03/16 02:35:08;;;;;;;19.60;9.13;;;;;;;4.50;58.38;100465.28;4813531;29;20061;-75
2024/03/16 02:37:36;;;;;;;15.52;9.10;;;;;;;4.42;58.89;100446.16;4800954;29;20047;-74
2024/03/16 02:40:06;;;;;;;21.95;9.80;;;;;;;4.20;58.84;100398.31;4808534;29;20506;-73
2024/03/16 02:42:35;;;;;;;17.83;8.93;;;;;;;4.44;58.49;100453.91;4767299;29;20119;-74
2024/03/16 02:45:05;;;;;;;15.93;8.60;;;;;;;4.49;58.75;100453.22;4798070;29;20098;-75
2024/03/16 02:47:34;;;;;;;14.35;9.23;;;;;;;4.41;58.37;100434.09;4780635;29;20145;-74
2024/03/16 02:50:03;;;;;;;16.25;9.35;;;;;;;4.37;58.01;100442.56;4786600;29;20051;-75
2024/03/16 02:52:31;;;;;;;15.02;9.30;;;;;;;4.20;58.50;100408.59;4792552;29;20047;-75
2024/03/16 02:54:58;;;;;;;17.10;8.95;;;;;;;4.41;57.96;100440.97;4770946;29;20788;-74
2024/03/16 02:57:25;;;;;;;17.48;9.25;;;;;;;4.41;58.84;100431.50;4782187;29;20054;-75
2024/03/16 02:59:51;;;;;;;17.38;9.20;;;;;;;4.48;58.80;100440.28;4802287;29;20050;-75
2024/03/16 03:02:22;;;;;;;18.70;9.25;;;;;;;4.18;58.67;100385.41;4793840;29;20098;-76
2024/03/16 03:04:51;;;;;;;19.05;9.43;;;;;;;4.52;58.03;100439.53;4799122;29;20114;-75
2024/03/16 03:07:18;;;;;;;15.75;8.80;;;;;;;4.47;58.44;100434.25;4783277;29;20115;-74
2024/03/16 03:09:50;;;;;;;18.33;8.98;;;;;;;4.43;58.11;100423.81;4812865;29;20075;-77
2024/03/16 03:12:16;;;;;;;17.58;8.75;;;;;;;4.48;58.07;100445.44;4766892;29;20731;-75
2024/03/16 03:14:42;;;;;;;18.27;9.50;;;;;;;4.51;58.32;100461.88;4802774;29;20562;-75
2024/03/16 03:17:09;;;;;;;16.08;8.65;;;;;;;4.47;58.39;100465.19;4799447;29;20034;-75
2024/03/16 03:19:37;;;;;;;18.23;9.00;;;;;;;4.37;58.44;100453.75;4793565;29;20053;-74
2024/03/16 03:22:04;;;;;;;15.40;8.60;;;;;;;4.30;58.11;100448.41;4798419;29;20070;-76
2024/03/16 03:24:30;;;;;;;20.05;9.48;;;;;;;4.26;57.79;100439.69;4798167;29;20434;-74
2024/03/16 03:26:56;;;;;;;19.35;8.90;;;;;;;4.19;58.69;100433.50;4798054;29;20043;-75
2024/03/16 03:29:22;;;;;;;14.52;8.82;;;;;;;4.03;58.69;100405.59;4800695;29;20043;-75
2024/03/16 03:31:48;;;;;;;17.48;9.15;;;;;;;3.95;58.67;100396.78;4796108;29;20050;-75
2024/03/16 03:34:15;;;;;;;17.23;9.27;;;;;;;4.03;58.53;100410.75;4768017;29;20190;-76
2024/03/16 03:36:44;;;;;;;19.40;9.02;;;;;;;4.20;58.86;100422.38;4812648;29;20050;-75
2024/03/16 03:39:14;;;;;;;16.15;9.30;;;;;;;4.36;58.49;100459.75;4784332;29;20062;-75
2024/03/16 03:41:40;;;;;;;15.38;9.07;;;;;;;4.06;58.84;100413.41;4796991;29;20053;-76
2024/03/16 03:44:20;;;;;;;19.00;9.82;;;;;;;4.21;58.69;100430.97;4796513;29;20051;-73
2024/03/16 03:46:51;;;;;;;20.20;9.13;;;;;;;4.30;58.59;100433.81;4799265;29;20391;-75
2024/03/16 03:49:26;;;;;;;19.08;8.88;;;;;;;4.46;58.44;100468.59;4784012;29;20523;-78
2024/03/16 03:51:59;;;;;;;18.83;9.20;;;;;;;4.42;58.70;100456.47;4797611;29;20046;-77
2024/03/16 03:54:25;;;;;;;19.45;9.20;;;;;;;4.50;58.72;100470.44;4813093;29;20098;-76
2024/03/16 03:56:54;;;;;;;18.08;8.98;;;;;;;4.13;58.19;100396.41;4804248;29;20054;-76
2024/03/16 03:59:21;;;;;;;20.75;9.57;;;;;;;4.12;58.20;100407.56;4774147;29;20103;-76
2024/03/16 04:01:49;;;;;;;14.65;8.82;;;;;;;4.02;58.39;100390.97;4799940;29;20760;-74
2024/03/16 04:04:17;;;;;;;17.50;9.60;;;;;;;4.51;58.41;100479.91;4795489;29;20074;-75
2024/03/16 04:06:45;;;;;;;17.88;8.75;;;;;;;4.53;58.51;100478.22;4797742;29;20057;-73
2024/03/16 04:09:14;;;;;;;23.88;9.57;;;;;;;4.53;58.72;100475.63;4799321;29;20134;-74
2024/03/16 04:11:43;;;;;;;19.00;8.90;;;;;;;4.56;58.82;100468.81;4791599;29;20047;-73
2024/03/16 04:14:09;;;;;;;18.48;9.05;;;;;;;4.53;57.96;100469.63;4798814;29;20047;-73
2024/03/16 04:16:35;;;;;;;18.52;9.80;;;;;;;4.51;57.88;100466.13;4799267;29;20061;-73
2024/03/16 04:19:04;;;;;;;16.00;8.68;;;;;;;4.51;58.51;100474.75;4785156;29;20055;-73
2024/03/16 04:21:33;;;;;;;22.50;9.55;;;;;;;4.46;57.96;100460.88;4800349;29;20588;-70
2024/03/16 04:23:59;;;;;;;16.85;9.43;;;;;;;4.40;58.26;100449.53;4797917;29;20047;-73
2024/03/16 04:26:27;;;;;;;19.00;9.48;;;;;;;4.36;58.40;100451.13;4797138;29;20051;-74
2024/03/16 04:28:56;;;;;;;15.70;8.60;;;;;;;4.65;58.41;100480.25;4800492;29;20043;-75
2024/03/16 04:31:22;;;;;;;16.42;8.65;;;;;;;4.55;57.84;100449.91;4815002;29;20062;-72
2024/03/16 04:33:48;;;;;;;22.00;10.13;;;;;;;4.52;58.65;100448.13;4774896;29;20058;-74
2024/03/16 04:36:14;;;;;;;19.85;8.82;;;;;;;4.53;58.16;100439.56;4803697;29;20104;-77
2024/03/16 04:38:40;;;;;;;16.58;8.65;;;;;;;4.41;58.61;100421.19;4802011;29;20554;-78
2024/03/16 04:41:07;;;;;;;18.55;9.32;;;;;;;4.48;58.54;100435.13;4811376;29;20058;-74
2024/03/16 04:43:33;;;;;;;18.55;9.05;;;;;;;4.39;58.76;100427.16;4816630;29;20101;-77
2024/03/16 04:45:59;;;;;;;19.02;9.85;;;;;;;4.46;58.66;100431.63;4773060;29;20047;-77
2024/03/16 04:48:28;;;;;;;14.38;8.43;;;;;;;4.64;58.33;100455.28;4800391;29;20039;-76
2024/03/16 04:50:56;;;;;;;15.82;8.73;;;;;;;4.42;58.43;100415.22;4800084;29;20534;-77
2024/03/16 04:53:22;;;;;;;15.95;8.98;;;;;;;4.81;58.31;100486.69;4788221;29;20133;-76
2024/03/16 04:55:52;;;;;;;19.17;8.68;;;;;;;4.74;57.54;100478.75;4786064;29;20112;-76
2024/03/16 04:58:22;;;;;;;18.02;8.70;;;;;;;4.82;57.63;100482.41;4799957;29;20039;-75
2024/03/16 05:00:48;;;;;;;15.93;8.88;;;;;;;4.88;57.93;100479.09;4800132;29;20161;-75
2024/03/16 05:03:14;;;;;;;15.88;8.73;;;;;;;4.60;57.49;100425.13;4783124;29;20085;-76
2024/03/16 05:05:40;;;;;;;16.05;8.63;;;;;;;4.86;58.16;100470.47;4796666;29;20070;-74
2024/03/16 05:08:07;;;;;;;17.13;9.70;;;;;;;4.67;58.07;100431.31;4800537;29;20054;-74
2024/03/16 05:10:35;;;;;;;21.23;9.30;;;;;;;4.76;57.42;100446.16;4759266;29;20047;-76
2024/03/16 05:13:04;;;;;;;22.43;10.97;;;;;;;4.60;57.82;100417.41;4813406;29;20590;-75
2024/03/16 05:15:30;;;;;;;20.10;9.18;;;;;;;4.60;57.67;100417.41;4801075;29;20296;-73
2024/03/16 05:17:57;;;;;;;21.42;9.48;;;;;;;4.61;57.43;100408.84;4788008;29;20041;-78
2024/03/16 05:20:24;;;;;;;19.30;9.57;;;;;;;5.00;57.46;100473.38;4789343;29;20356;-74
2024/03/16 05:22:50;;;;;;;22.38;9.35;;;;;;;5.04;57.35;100478.66;4796356;29;20054;-75
2024/03/16 05:25:17;;;;;;;17.13;9.27;;;;;;;5.14;57.87;100487.47;4801479;29;20309;-75
2024/03/16 05:27:44;;;;;;;21.15;9.40;;;;;;;5.09;57.20;100483.91;4777985;29;20404;-74
2024/03/16 05:30:11;;;;;;;17.15;9.15;;;;;;;5.17;58.07;100489.28;4802320;29;20046;-79
2024/03/16 05:32:37;;;;;;;19.67;9.43;;;;;;;5.06;57.48;100474.41;4799375;29;21580;-75
2024/03/16 05:35:08;;;;;;;18.85;10.30;;;;;;;5.03;56.93;100473.47;4797401;29;20050;-79
2024/03/16 05:37:37;;;;;;;19.15;9.43;;;;;;;5.20;57.67;100491.91;4804621;29;20483;-73
2024/03/16 05:40:04;;;;;;;21.38;9.80;;;;;;;4.92;57.33;100447.41;4798662;29;20071;-75
2024/03/16 05:42:30;;;;;;;17.02;9.48;;;;;;;5.23;57.25;100494.56;4768929;29;20601;-75
2024/03/16 05:44:58;;;;;;;24.77;9.23;;;;;;;4.86;56.83;100431.78;4781620;29;20400;-76
2024/03/16 05:47:24;;;;;;;16.67;9.68;;;;;;;5.04;57.64;100477.78;4793228;29;20054;-75
2024/03/16 05:49:50;;;;;;;21.77;10.35;;;;;;;5.02;56.79;100475.16;4806508;29;20460;-74
2024/03/16 05:52:20;;;;;;;18.50;9.70;;;;;;;5.10;56.70;100496.88;4782494;29;20108;-75
2024/03/16 05:54:46;;;;;;;18.35;9.60;;;;;;;5.08;57.03;100489.91;4793215;29;20115;-77
2024/03/16 05:57:12;;;;;;;17.70;9.65;;;;;;;5.09;56.49;100513.19;4783868;29;20471;-76
2024/03/16 05:59:38;;;;;;;22.95;10.90;;;;;;;4.97;56.62;100518.91;4795664;29;20118;-77
2024/03/16 06:02:07;;;;;;;19.20;10.05;;;;;;;4.66;57.07;100442.47;4769648;29;20054;-81
2024/03/16 06:04:33;;;;;;;21.45;10.40;;;;;;;5.03;56.62;100492.38;4786818;29;20567;-75
2024/03/16 06:06:59;;;;;;;24.20;9.63;;;;;;;5.24;57.32;100515.25;4777741;29;20043;-72
2024/03/16 06:09:25;;;;;;;17.40;9.85;;;;;;;5.34;56.80;100516.34;4796403;29;20039;-74
2024/03/16 06:11:51;;;;;;;21.77;11.13;;;;;;;5.31;57.08;100489.59;4793136;29;20418;-75
2024/03/16 06:14:17;;;;;;;18.33;10.43;;;;;;;5.34;56.48;100489.66;4775880;29;20066;-75
2024/03/16 06:16:44;;;;;;;19.10;10.27;;;;;;;5.21;56.45;100458.41;4778861;29;20097;-76
2024/03/16 06:19:12;;;;;;;18.50;9.85;;;;;;;5.40;56.82;100475.22;4781170;29;20066;-80
2024/03/16 06:21:38;;;;;;;20.20;10.75;;;;;;;5.54;56.35;100490.13;4797402;29;20173;-70
2024/03/16 06:24:05;;;;;;;20.10;9.80;;;;;;;5.62;56.28;100498.94;4796090;29;20046;-71
2024/03/16 06:26:39;;;;;;;17.17;9.75;;;;;;;5.81;56.69;100500.19;4782306;29;20054;-70
2024/03/16 06:29:10;;;;;;;16.95;10.27;;;;;;;5.84;56.33;100483.91;4794027;29;20039;-66
2024/03/16 06:31:41;;;;;;;21.58;11.13;;;;;;;6.04;56.26;100479.19;4796961;29;20047;-70
2024/03/16 06:34:19;;;;;;;17.92;10.27;;;;;;;6.54;55.44;100508.59;4800744;29;20132;-70
2024/03/16 06:36:47;;;;;;;20.10;10.55;;;;;;;6.56;54.88;100468.13;4797846;29;20434;-69
2024/03/16 06:39:13;;;;;;;19.52;10.05;;;;;;;6.99;55.08;100499.03;4808885;29;20550;-77
2024/03/16 06:41:39;;;;;;;22.30;10.32;;;;;;;7.13;54.52;100457.84;4792242;29;20079;-70
2024/03/16 06:44:05;;;;;;;16.27;9.93;;;;;;;7.73;54.16;100479.44;4775488;29;20050;-73
2024/03/16 06:46:31;;;;;;;19.00;10.05;;;;;;;8.15;53.55;100467.03;4790430;29;20046;-76
2024/03/16 06:49:04;;;;;;;15.32;9.90;;;;;;;9.05;52.67;100486.06;4789549;29;20054;-76
2024/03/16 06:51:31;;;;;;;18.15;10.07;;;;;;;9.49;52.23;100428.38;4780976;29;20055;-80
2024/03/16 06:53:59;;;;;;;19.08;9.10;;;;;;;10.98;51.46;100480.91;4778720;29;20141;-67
2024/03/16 06:56:26;;;;;;;20.40;9.48;;;;;;;12.37;49.62;100480.56;4790413;29;20184;-68
2024/03/16 06:58:59;;;;;;;;;;;;;;;13.36;47.28;100474.59;4752328;29;20051;-70
2024/03/16 07:01:25;;;;;;;13.95;9.50;;;;;;;14.82;46.44;100455.34;4773214;30;20313;-69
2024/03/16 07:03:51;;;;;;;18.90;11.18;;;;;;;16.05;44.97;100447.88;4774648;30;20047;-67
2024/03/16 07:06:37;;;;;;;18.63;10.27;;;;;;;17.13;41.74;100460.31;4789316;29;20071;-70
2024/03/16 07:09:08;;;;;;;22.33;10.43;;;;;;;18.13;40.73;100432.16;4787237;29;20149;-70
2024/03/16 07:11:34;;;;;;;16.02;10.05;;;;;;;19.48;38.37;100433.91;4772576;29;20478;-68
2024/03/16 07:14:06;;;;;;;18.08;10.30;;;;;;;20.19;36.61;100453.38;4771957;29;20066;-69
2024/03/16 07:16:32;;;;;;;20.98;10.77;;;;;;;20.90;34.99;100456.72;4771655;30;20086;-68
2024/03/16 07:18:58;;;;;;;17.75;11.15;;;;;;;22.17;34.07;100455.59;4759900;30;20054;-68
2024/03/16 07:21:24;;;;;;;17.95;11.35;;;;;;;23.15;32.93;100425.19;4760718;30;20062;-70
2024/03/16 07:23:50;;;;;;;18.23;10.80;;;;;;;24.59;31.69;100435.22;4770435;29;20415;-67
2024/03/16 07:26:16;;;;;;;16.08;11.23;;;;;;;25.30;29.39;100459.50;4760331;29;20047;-67
2024/03/16 07:28:43;;;;;;;21.63;11.70;;;;;;;25.27;29.05;100439.19;4772884;30;20074;-67
2024/03/16 07:31:09;;;;;;;18.08;11.80;;;;;;;25.95;27.97;100441.34;4777034;30;20138;-67
2024/03/16 07:33:36;;;;;;;18.90;12.07;;;;;;;26.33;27.51;100448.72;4768498;30;20051;-68
2024/03/16 07:36:04;;;;;;;18.23;12.35;;;;;;;26.51;26.49;100448.47;4780158;30;20134;-68
2024/03/16 07:38:48;;;;;;;20.08;12.13;;;;;;;26.60;25.75;100442.53;5106149;27;509066;-69
2024/03/16 07:41:14;;;;;;;15.43;12.48;;;;;;;27.34;25.84;100445.56;5095902;27;20043;-70
2024/03/16 07:43:40;;;;;;;17.48;12.02;;;;;;;28.49;25.30;100447.31;5111095;27;20052;-68
2024/03/16 07:46:06;;;;;;;17.80;11.73;;;;;;;28.99;24.30;100437.31;5080309;28;20036;-68
2024/03/16 07:48:32;;;;;;;19.70;13.10;;;;;;;29.09;23.60;100408.00;5070328;28;20043;-71
2024/03/16 07:51:04;;;;;;;16.90;12.13;;;;;;;29.97;22.96;100443.16;5091657;28;20071;-67
2024/03/16 07:53:36;;;;;;;20.40;12.70;;;;;;;31.05;22.81;100443.28;5108838;27;20142;-68
2024/03/16 07:56:04;;;;;;;17.98;12.38;;;;;;;31.67;21.92;100435.28;5096400;27;20038;-67
2024/03/16 07:58:31;;;;;;;19.15;12.52;;;;;;;30.84;20.78;100393.13;5069403;27;20440;-69
2024/03/16 08:00:57;;;;;;;16.05;12.30;;;;;;;30.79;20.84;100440.97;5075422;28;20042;-70
2024/03/16 08:03:23;;;;;;;19.38;12.82;;;;;;;31.67;21.04;100437.97;5096519;28;20043;-68
2024/03/16 08:05:49;;;;;;;20.50;13.43;;;;;;;32.73;20.52;100445.59;5095503;28;20042;-67
2024/03/16 08:08:15;;;;;;;19.85;12.68;;;;;;;33.11;19.80;100433.09;5095257;28;20127;-74
2024/03/16 08:10:41;;;;;;;15.38;11.75;;;;;;;32.96;19.66;100416.56;5098215;28;20067;-72
2024/03/16 08:13:08;;;;;;;17.38;12.07;;;;;;;33.14;19.47;100423.88;5089979;28;20061;-72
2024/03/16 08:15:34;;;;;;;17.52;12.60;;;;;;;32.80;19.67;100405.47;5081271;28;20393;-71
2024/03/16 08:18:00;;;;;;;19.13;11.48;;;;;;;33.31;18.98;100419.56;5078846;28;20092;-71
2024/03/16 08:20:26;;;;;;;19.02;12.95;;;;;;;33.72;18.94;100439.03;5064209;28;20032;-70
2024/03/16 08:22:55;;;;;;;17.17;12.07;;;;;;;34.12;18.36;100444.22;5095447;28;20042;-74
2024/03/16 08:25:21;;;;;;;17.02;11.30;;;;;;;34.36;18.45;100403.97;5084900;28;20038;-74
2024/03/16 08:27:47;;;;;;;17.10;10.90;;;;;;;35.09;18.29;100423.69;5075251;28;20861;-70
2024/03/16 08:30:14;;;;;;;16.92;11.77;;;;;;;35.28;17.44;100425.31;5094794;28;20042;-72
2024/03/16 08:32:43;;;;;;;16.23;11.10;;;;;;;34.81;17.43;100418.38;5093122;28;20153;-68
2024/03/16 08:35:09;;;;;;;16.40;11.63;;;;;;;33.82;17.39;100412.00;5078437;28;20032;-71
2024/03/16 08:37:35;;;;;;;15.77;11.52;;;;;;;33.60;17.64;100437.50;5107963;28;20146;-73
2024/03/16 08:40:04;;;;;;;17.25;11.02;;;;;;;33.31;17.64;100396.16;5092306;28;20039;-72
2024/03/16 08:42:33;;;;;;;15.23;11.27;;;;;;;33.82;17.86;100435.41;5067205;28;20035;-72
2024/03/16 08:44:59;;;;;;;18.48;11.88;;;;;;;33.76;17.95;100409.88;5083556;28;20051;-70
2024/03/16 08:47:25;;;;;;;15.45;11.48;;;;;;;34.19;17.47;100411.06;5064624;28;20035;-72
2024/03/16 08:49:51;;;;;;;17.63;10.52;;;;;;;33.56;17.36;100423.47;5063229;28;20126;-71
2024/03/16 08:52:18;;;;;;;19.33;11.75;;;;;;;33.14;17.02;100389.66;5079451;28;20050;-76
2024/03/16 08:54:44;;;;;;;17.30;11.32;;;;;;;32.23;17.46;100411.53;5055382;28;20496;-71
2024/03/16 08:57:10;;;;;;;13.63;10.88;;;;;;;32.22;17.83;100380.25;5050064;28;20135;-70
2024/03/16 08:59:38;;;;;;;13.35;9.95;;;;;;;31.99;17.24;100393.94;5096452;28;20233;-72
2024/03/16 09:02:05;;;;;;;15.93;10.82;;;;;;;31.24;18.08;100392.38;5083671;28;20031;-69
2024/03/16 09:04:32;;;;;;;13.98;10.52;;;;;;;31.58;18.48;100406.53;5079100;28;20130;-70
2024/03/16 09:07:00;;;;;;;13.52;10.45;;;;;;;32.98;18.52;100419.09;5082045;28;20032;-68
2024/03/16 09:09:29;;;;;;;15.50;10.90;;;;;;;32.90;18.08;100401.78;5087424;28;20127;-69
2024/03/16 09:11:56;;;;;;;15.60;10.43;;;;;;;33.63;17.70;100397.63;5079052;28;20035;-69
2024/03/16 09:14:25;;;;;;;14.15;10.25;;;;;;;33.25;17.15;100398.59;5054107;28;20043;-70
2024/03/16 09:16:51;;;;;;;15.18;9.82;;;;;;;33.90;17.48;100420.19;5079699;28;20047;-71
2024/03/16 09:19:17;;;;;;;13.73;9.13;;;;;;;34.08;17.26;100403.22;5096647;28;20554;-71
2024/03/16 09:21:44;;;;;;;12.52;8.73;;;;;;;33.92;17.41;100410.09;5066282;28;20497;-70
2024/03/16 09:24:11;;;;;;;13.55;9.57;;;;;;;33.47;17.19;100394.69;5080854;28;20058;-70
2024/03/16 09:26:37;;;;;;;12.10;8.70;;;;;;;33.57;17.17;100370.38;5082170;28;20085;-70
2024/03/16 09:29:04;;;;;;;12.18;9.05;;;;;;;34.35;17.64;100401.41;5078015;28;20044;-69
2024/03/16 09:31:30;;;;;;;11.23;9.18;;;;;;;33.55;16.44;100405.59;5078761;28;20066;-69
2024/03/16 09:33:58;;;;;;;11.63;9.02;;;;;;;33.04;16.92;100397.78;5080571;28;20071;-67
2024/03/16 09:36:25;;;;;;;12.55;9.35;;;;;;;33.37;17.56;100380.41;5066322;28;20273;-69
2024/03/16 09:38:52;;;;;;;13.52;9.00;;;;;;;33.49;17.24;100390.88;5080227;28;20092;-71
2024/03/16 09:41:20;;;;;;;15.18;9.05;;;;;;;34.01;17.39;100386.75;5095161;28;20051;-69
2024/03/16 09:43:47;;;;;;;11.80;8.15;;;;;;;33.60;17.18;100397.91;5066542;28;20104;-70
2024/03/16 09:46:16;;;;;;;10.90;8.25;;;;;;;33.56;17.19;100385.72;5077158;28;20397;-68
2024/03/16 09:48:42;;;;;;;13.57;9.52;;;;;;;33.15;16.75;100374.38;5068888;28;20035;-68
2024/03/16 09:51:15;;;;;;;11.73;8.60;;;;;;;32.94;16.99;100356.56;5069586;28;20047;-70
2024/03/16 09:53:41;;;;;;;13.15;9.52;;;;;;;33.50;16.97;100380.91;5075451;28;20055;-70
2024/03/16 09:56:11;;;;;;;14.35;9.27;;;;;;;33.97;17.30;100371.88;5078122;28;20044;-73
2024/03/16 09:58:38;;;;;;;13.00;8.70;;;;;;;34.30;17.03;100358.69;5078629;28;20036;-82
2024/03/16 10:01:06;;;;;;;14.73;8.48;;;;;;;34.48;16.48;100323.59;5097664;28;20127;-71
2024/03/16 10:03:33;;;;;;;15.05;9.63;;;;;;;34.48;16.47;100380.31;5066832;28;20047;-71
2024/03/16 10:06:08;;;;;;;14.23;8.75;;;;;;;34.22;16.86;100359.47;5079057;28;20044;-69
2024/03/16 10:08:37;;;;;;;11.40;8.52;;;;;;;34.78;16.87;100361.94;5079143;28;20438;-69
2024/03/16 10:11:12;;;;;;;13.80;8.80;;;;;;;34.86;16.38;100376.53;5062583;28;20043;-71
2024/03/16 10:13:59;;;;;;;11.38;8.98;;;;;;;34.14;16.35;100362.09;5068580;28;20035;-68
2024/03/16 10:16:25;;;;;;;11.82;8.77;;;;;;;33.93;16.76;100352.44;5052230;28;20047;-68
2024/03/16 10:18:55;;;;;;;12.20;8.60;;;;;;;33.24;16.40;100362.69;5101174;28;20043;-68
2024/03/16 10:21:21;;;;;;;9.30;7.22;;;;;;;31.51;16.70;100325.59;5072553;28;20136;-69
2024/03/16 10:23:48;;;;;;;12.15;8.40;;;;;;;29.57;17.03;100364.06;5069575;28;20032;-68
2024/03/16 10:26:14;;;;;;;12.98;7.82;;;;;;;27.61;18.33;100377.84;5069733;28;20046;-68
2024/03/16 10:28:43;;;;;;;10.73;7.15;;;;;;;25.80;19.24;100361.41;5065693;28;20038;-67
2024/03/16 10:31:10;;;;;;;14.48;9.27;;;;;;;24.59;20.30;100358.06;5097405;28;20046;-70
2024/03/16 10:33:38;;;;;;;12.45;8.55;;;;;;;23.38;20.97;100354.13;5098408;28;20044;-69
2024/03/16 10:36:06;;;;;;;12.38;8.95;;;;;;;22.17;22.18;100361.97;5066128;28;21346;-68
2024/03/16 10:38:34;;;;;;;14.63;9.88;;;;;;;21.01;23.25;100363.66;5045976;28;20044;-67
2024/03/16 10:41:06;;;;;;;15.68;9.75;;;;;;;20.04;24.04;100360.56;5076138;28;20122;-68
2024/03/16 10:43:33;;;;;;;14.60;9.10;;;;;;;19.35;25.32;100380.72;5064326;28;20040;-69
2024/03/16 10:46:01;;;;;;;12.60;8.38;;;;;;;18.88;25.95;100362.97;5055313;28;20102;-72
2024/03/16 10:48:30;;;;;;;14.55;8.98;;;;;;;18.61;26.71;100375.31;5063110;28;20763;-70
2024/03/16 10:50:57;;;;;;;19.70;10.07;;;;;;;18.37;27.11;100356.75;5064446;28;20047;-72
2024/03/16 10:53:25;;;;;;;13.35;8.88;;;;;;;18.10;26.98;100363.78;5078441;28;20040;-73
2024/03/16 10:55:52;;;;;;;13.15;8.13;;;;;;;17.35;27.78;100342.25;5080230;28;20083;-82
2024/03/16 10:58:20;;;;;;;12.70;8.45;;;;;;;16.71;28.55;100343.94;5057354;28;20802;-78
2024/03/16 11:00:54;;;;;;;15.13;8.93;;;;;;;16.24;29.03;100346.81;5079429;28;20055;-74
2024/03/16 11:03:30;;;;;;;17.42;8.98;;;;;;;15.89;29.58;100356.38;5075493;28;20058;-71
2024/03/16 11:06:02;;;;;;;15.93;8.50;;;;;;;15.68;30.56;100376.03;5062218;28;20421;-73
2024/03/16 11:08:48;;;;;;;16.05;9.70;;;;;;;15.38;30.90;100361.78;5077979;28;20070;-75
2024/03/16 11:11:20;;;;;;;17.60;9.07;;;;;;;15.26;31.25;100369.00;5075060;28;20067;-74
2024/03/16 11:13:55;;;;;;;14.13;8.52;;;;;;;15.18;31.56;100370.91;5068093;28;20064;-74
2024/03/16 11:16:35;;;;;;;17.17;9.00;;;;;;;14.94;32.09;100373.06;5075841;28;20040;-70
2024/03/16 11:19:09;;;;;;;15.10;9.00;;;;;;;14.73;32.13;100371.69;5054636;28;20046;-67
2024/03/16 11:21:38;;;;;;;17.55;9.02;;;;;;;14.06;32.80;100325.59;5072890;28;20054;-67